sensor_id;sensor_type;location;lat;lon;timestamp;P1;durP1;ratioP1;P2;durP2;ratioP2
72478;SDS011;60658;52.246;5.258;2022-11-20T00:03:46;16.77;;;10.43;;
72478;SDS011;60658;52.246;5.258;2022-11-20T00:05:07;15.88;;;8.90;;
72478;SDS011;60658;52.246;5.258;2022-11-20T00:17:01;19.70;;;10.30;;
72478;SDS011;60658;52.246;5.258;2022-11-20T00:18:43;19.05;;;10.15;;
72478;SDS011;60658;52.246;5.258;2022-11-20T00:19:52;15.98;;;9.45;;
72478;SDS011;60658;52.246;5.258;2022-11-20T00:21:14;16.70;;;9.90;;
72478;SDS011;60658;52.246;5.258;2022-11-20T00:22:24;17.15;;;10.00;;
72478;SDS011;60658;52.246;5.258;2022-11-20T00:23:52;17.60;;;9.95;;
72478;SDS011;60658;52.246;5.258;2022-11-20T00:26:47;17.42;;;9.77;;
72478;SDS011;60658;52.246;5.258;2022-11-20T00:28:08;16.27;;;10.27;;
72478;SDS011;60658;52.246;5.258;2022-11-20T00:35:47;21.50;;;12.50;;
72478;SDS011;60658;52.246;5.258;2022-11-20T00:40:06;21.08;;;12.45;;
72478;SDS011;60658;52.246;5.258;2022-11-20T00:41:25;20.55;;;11.40;;
72478;SDS011;60658;52.246;5.258;2022-11-20T00:42:51;21.25;;;10.85;;
72478;SDS011;60658;52.246;5.258;2022-11-20T00:44:22;22.35;;;11.20;;
72478;SDS011;60658;52.246;5.258;2022-11-20T00:45:34;21.63;;;11.90;;
72478;SDS011;60658;52.246;5.258;2022-11-20T00:46:41;21.70;;;10.77;;
72478;SDS011;60658;52.246;5.258;2022-11-20T00:49:10;20.80;;;12.35;;
72478;SDS011;60658;52.246;5.258;2022-11-20T00:50:17;22.73;;;12.55;;
72478;SDS011;60658;52.246;5.258;2022-11-20T00:53:27;21.42;;;10.88;;
72478;SDS011;60658;52.246;5.258;2022-11-20T00:54:51;19.42;;;11.25;;
72478;SDS011;60658;52.246;5.258;2022-11-20T00:56:07;20.08;;;11.30;;
72478;SDS011;60658;52.246;5.258;2022-11-20T01:00:18;18.33;;;10.30;;
72478;SDS011;60658;52.246;5.258;2022-11-20T01:03:03;16.40;;;10.15;;
72478;SDS011;60658;52.246;5.258;2022-11-20T01:06:54;21.77;;;9.88;;
72478;SDS011;60658;52.246;5.258;2022-11-20T01:07:25;18.90;;;9.70;;
72478;SDS011;60658;52.246;5.258;2022-11-20T01:08:37;18.48;;;9.95;;
72478;SDS011;60658;52.246;5.258;2022-11-20T01:09:53;17.27;;;10.23;;
72478;SDS011;60658;52.246;5.258;2022-11-20T01:11:13;19.30;;;10.63;;
72478;SDS011;60658;52.246;5.258;2022-11-20T01:12:19;18.02;;;10.77;;
72478;SDS011;60658;52.246;5.258;2022-11-20T01:16:24;20.67;;;11.73;;
72478;SDS011;60658;52.246;5.258;2022-11-20T01:17:39;20.77;;;11.50;;
72478;SDS011;60658;52.246;5.258;2022-11-20T01:20:09;23.00;;;11.70;;
72478;SDS011;60658;52.246;5.258;2022-11-20T01:21:22;22.67;;;12.55;;
72478;SDS011;60658;52.246;5.258;2022-11-20T01:22:29;24.40;;;13.35;;
72478;SDS011;60658;52.246;5.258;2022-11-20T01:24:06;22.10;;;12.18;;
72478;SDS011;60658;52.246;5.258;2022-11-20T01:25:23;24.83;;;12.45;;
72478;SDS011;60658;52.246;5.258;2022-11-20T01:26:29;21.30;;;11.43;;
72478;SDS011;60658;52.246;5.258;2022-11-20T01:28:13;25.40;;;12.13;;
72478;SDS011;60658;52.246;5.258;2022-11-20T01:29:20;22.50;;;11.85;;
72478;SDS011;60658;52.246;5.258;2022-11-20T01:30:23;20.15;;;11.88;;
72478;SDS011;60658;52.246;5.258;2022-11-20T01:31:42;22.55;;;12.70;;
72478;SDS011;60658;52.246;5.258;2022-11-20T01:32:43;22.55;;;11.93;;
72478;SDS011;60658;52.246;5.258;2022-11-20T01:33:52;21.58;;;10.70;;
72478;SDS011;60658;52.246;5.258;2022-11-20T01:37:20;21.15;;;10.65;;
72478;SDS011;60658;52.246;5.258;2022-11-20T01:38:32;20.52;;;10.75;;
72478;SDS011;60658;52.246;5.258;2022-11-20T01:41:25;18.05;;;10.18;;
72478;SDS011;60658;52.246;5.258;2022-11-20T01:43:06;19.27;;;11.50;;
72478;SDS011;60658;52.246;5.258;2022-11-20T01:44:18;20.23;;;10.27;;
72478;SDS011;60658;52.246;5.258;2022-11-20T01:46:38;24.05;;;12.77;;
72478;SDS011;60658;52.246;5.258;2022-11-20T01:48:03;25.45;;;13.88;;
72478;SDS011;60658;52.246;5.258;2022-11-20T01:49:16;27.60;;;13.75;;
72478;SDS011;60658;52.246;5.258;2022-11-20T01:52:02;27.48;;;14.80;;
72478;SDS011;60658;52.246;5.258;2022-11-20T01:53:11;29.70;;;14.75;;
72478;SDS011;60658;52.246;5.258;2022-11-20T01:54:22;27.15;;;14.02;;
72478;SDS011;60658;52.246;5.258;2022-11-20T01:55:31;27.52;;;15.45;;
72478;SDS011;60658;52.246;5.258;2022-11-20T01:56:38;33.05;;;15.77;;
72478;SDS011;60658;52.246;5.258;2022-11-20T01:57:55;26.13;;;13.40;;
72478;SDS011;60658;52.246;5.258;2022-11-20T02:02:07;25.65;;;13.45;;
72478;SDS011;60658;52.246;5.258;2022-11-20T02:03:26;27.48;;;14.18;;
72478;SDS011;60658;52.246;5.258;2022-11-20T02:04:54;25.70;;;13.45;;
72478;SDS011;60658;52.246;5.258;2022-11-20T02:08:12;26.25;;;12.40;;
72478;SDS011;60658;52.246;5.258;2022-11-20T02:09:13;24.73;;;13.30;;
72478;SDS011;60658;52.246;5.258;2022-11-20T02:13:46;24.95;;;13.73;;
72478;SDS011;60658;52.246;5.258;2022-11-20T02:18:00;27.13;;;14.18;;
72478;SDS011;60658;52.246;5.258;2022-11-20T02:18:44;26.67;;;12.73;;
72478;SDS011;60658;52.246;5.258;2022-11-20T02:19:31;26.25;;;13.45;;
72478;SDS011;60658;52.246;5.258;2022-11-20T02:27:13;23.83;;;13.38;;
72478;SDS011;60658;52.246;5.258;2022-11-20T02:30:16;22.85;;;12.63;;
72478;SDS011;60658;52.246;5.258;2022-11-20T02:34:16;23.15;;;11.80;;
72478;SDS011;60658;52.246;5.258;2022-11-20T02:34:50;22.95;;;11.80;;
72478;SDS011;60658;52.246;5.258;2022-11-20T02:53:09;21.15;;;11.13;;
72478;SDS011;60658;52.246;5.258;2022-11-20T02:58:10;22.40;;;12.00;;
72478;SDS011;60658;52.246;5.258;2022-11-20T03:03:08;23.90;;;12.50;;
72478;SDS011;60658;52.246;5.258;2022-11-20T03:36:06;20.52;;;11.65;;
72478;SDS011;60658;52.246;5.258;2022-11-20T03:37:08;21.55;;;10.60;;
72478;SDS011;60658;52.246;5.258;2022-11-20T03:38:11;23.88;;;13.25;;
72478;SDS011;60658;52.246;5.258;2022-11-20T03:39:12;21.95;;;11.85;;
72478;SDS011;60658;52.246;5.258;2022-11-20T03:40:13;21.95;;;12.65;;
72478;SDS011;60658;52.246;5.258;2022-11-20T03:41:15;21.83;;;13.27;;
72478;SDS011;60658;52.246;5.258;2022-11-20T03:42:16;24.25;;;12.85;;
72478;SDS011;60658;52.246;5.258;2022-11-20T03:43:17;22.70;;;12.20;;
72478;SDS011;60658;52.246;5.258;2022-11-20T03:44:17;23.35;;;12.38;;
72478;SDS011;60658;52.246;5.258;2022-11-20T03:45:21;23.35;;;12.65;;
72478;SDS011;60658;52.246;5.258;2022-11-20T03:46:22;21.98;;;12.18;;
72478;SDS011;60658;52.246;5.258;2022-11-20T03:47:26;22.92;;;12.23;;
72478;SDS011;60658;52.246;5.258;2022-11-20T03:48:27;22.08;;;12.23;;
72478;SDS011;60658;52.246;5.258;2022-11-20T03:49:28;22.52;;;12.45;;
72478;SDS011;60658;52.246;5.258;2022-11-20T03:50:28;20.52;;;12.27;;
72478;SDS011;60658;52.246;5.258;2022-11-20T03:51:31;22.33;;;12.82;;
72478;SDS011;60658;52.246;5.258;2022-11-20T03:52:35;22.05;;;12.30;;
72478;SDS011;60658;52.246;5.258;2022-11-20T03:53:35;20.55;;;10.63;;
72478;SDS011;60658;52.246;5.258;2022-11-20T03:54:43;23.45;;;12.60;;
72478;SDS011;60658;52.246;5.258;2022-11-20T03:55:44;21.42;;;11.82;;
72478;SDS011;60658;52.246;5.258;2022-11-20T03:56:48;25.88;;;13.27;;
72478;SDS011;60658;52.246;5.258;2022-11-20T03:57:56;26.88;;;14.43;;
72478;SDS011;60658;52.246;5.258;2022-11-20T03:58:57;24.30;;;13.52;;
72478;SDS011;60658;52.246;5.258;2022-11-20T03:59:58;24.17;;;14.07;;
72478;SDS011;60658;52.246;5.258;2022-11-20T04:01:03;23.90;;;13.48;;
72478;SDS011;60658;52.246;5.258;2022-11-20T04:02:04;23.05;;;13.48;;
72478;SDS011;60658;52.246;5.258;2022-11-20T04:03:05;24.27;;;13.82;;
72478;SDS011;60658;52.246;5.258;2022-11-20T04:04:06;21.02;;;11.20;;
72478;SDS011;60658;52.246;5.258;2022-11-20T04:05:06;23.23;;;12.98;;
72478;SDS011;60658;52.246;5.258;2022-11-20T04:06:08;26.08;;;14.68;;
72478;SDS011;60658;52.246;5.258;2022-11-20T04:07:13;23.80;;;12.60;;
72478;SDS011;60658;52.246;5.258;2022-11-20T04:08:14;25.80;;;14.27;;
72478;SDS011;60658;52.246;5.258;2022-11-20T04:09:14;26.80;;;14.48;;
72478;SDS011;60658;52.246;5.258;2022-11-20T04:10:15;26.75;;;14.10;;
72478;SDS011;60658;52.246;5.258;2022-11-20T04:11:16;22.02;;;12.88;;
72478;SDS011;60658;52.246;5.258;2022-11-20T04:12:17;23.45;;;13.15;;
72478;SDS011;60658;52.246;5.258;2022-11-20T04:13:18;24.67;;;13.75;;
72478;SDS011;60658;52.246;5.258;2022-11-20T04:14:19;26.10;;;13.32;;
72478;SDS011;60658;52.246;5.258;2022-11-20T04:15:20;24.75;;;13.77;;
72478;SDS011;60658;52.246;5.258;2022-11-20T04:16:21;27.20;;;14.63;;
72478;SDS011;60658;52.246;5.258;2022-11-20T04:17:22;26.48;;;13.75;;
72478;SDS011;60658;52.246;5.258;2022-11-20T04:18:23;25.90;;;13.52;;
72478;SDS011;60658;52.246;5.258;2022-11-20T04:19:24;24.42;;;13.85;;
72478;SDS011;60658;52.246;5.258;2022-11-20T04:20:25;24.05;;;13.65;;
72478;SDS011;60658;52.246;5.258;2022-11-20T04:21:26;23.27;;;13.45;;
72478;SDS011;60658;52.246;5.258;2022-11-20T04:22:28;24.48;;;14.20;;
72478;SDS011;60658;52.246;5.258;2022-11-20T04:23:29;24.58;;;13.85;;
72478;SDS011;60658;52.246;5.258;2022-11-20T04:24:30;25.27;;;12.48;;
72478;SDS011;60658;52.246;5.258;2022-11-20T04:25:32;20.48;;;12.98;;
72478;SDS011;60658;52.246;5.258;2022-11-20T04:26:32;23.08;;;12.95;;
72478;SDS011;60658;52.246;5.258;2022-11-20T04:27:33;22.48;;;11.32;;
72478;SDS011;60658;52.246;5.258;2022-11-20T04:28:34;21.40;;;12.10;;
72478;SDS011;60658;52.246;5.258;2022-11-20T04:29:35;22.83;;;13.02;;
72478;SDS011;60658;52.246;5.258;2022-11-20T04:30:36;23.48;;;13.10;;
72478;SDS011;60658;52.246;5.258;2022-11-20T04:31:37;22.92;;;13.38;;
72478;SDS011;60658;52.246;5.258;2022-11-20T04:32:41;23.90;;;12.60;;
72478;SDS011;60658;52.246;5.258;2022-11-20T04:33:41;22.48;;;12.63;;
72478;SDS011;60658;52.246;5.258;2022-11-20T04:34:43;21.80;;;12.63;;
72478;SDS011;60658;52.246;5.258;2022-11-20T04:35:43;25.20;;;12.65;;
72478;SDS011;60658;52.246;5.258;2022-11-20T04:36:46;24.13;;;12.45;;
72478;SDS011;60658;52.246;5.258;2022-11-20T04:37:48;25.00;;;12.02;;
72478;SDS011;60658;52.246;5.258;2022-11-20T04:38:51;23.73;;;12.77;;
72478;SDS011;60658;52.246;5.258;2022-11-20T04:39:52;21.73;;;12.73;;
72478;SDS011;60658;52.246;5.258;2022-11-20T04:40:55;23.92;;;12.50;;
72478;SDS011;60658;52.246;5.258;2022-11-20T04:41:56;22.35;;;12.88;;
72478;SDS011;60658;52.246;5.258;2022-11-20T04:42:56;25.45;;;12.88;;
72478;SDS011;60658;52.246;5.258;2022-11-20T04:43:58;22.63;;;13.07;;
72478;SDS011;60658;52.246;5.258;2022-11-20T04:44:59;22.48;;;13.00;;
72478;SDS011;60658;52.246;5.258;2022-11-20T04:45:59;23.42;;;13.43;;
72478;SDS011;60658;52.246;5.258;2022-11-20T04:47:00;25.27;;;13.32;;
72478;SDS011;60658;52.246;5.258;2022-11-20T04:48:01;17.17;;;11.23;;
72478;SDS011;60658;52.246;5.258;2022-11-20T04:49:02;23.08;;;10.57;;
72478;SDS011;60658;52.246;5.258;2022-11-20T04:50:03;21.17;;;11.63;;
72478;SDS011;60658;52.246;5.258;2022-11-20T04:51:04;24.13;;;13.23;;
72478;SDS011;60658;52.246;5.258;2022-11-20T04:52:06;21.70;;;12.35;;
72478;SDS011;60658;52.246;5.258;2022-11-20T04:53:08;20.90;;;11.65;;
72478;SDS011;60658;52.246;5.258;2022-11-20T04:54:09;23.45;;;12.75;;
72478;SDS011;60658;52.246;5.258;2022-11-20T04:55:12;20.33;;;10.63;;
72478;SDS011;60658;52.246;5.258;2022-11-20T04:56:13;21.88;;;12.07;;
72478;SDS011;60658;52.246;5.258;2022-11-20T04:57:14;18.27;;;11.00;;
72478;SDS011;60658;52.246;5.258;2022-11-20T04:58:18;23.50;;;12.70;;
72478;SDS011;60658;52.246;5.258;2022-11-20T04:59:20;20.83;;;12.55;;
72478;SDS011;60658;52.246;5.258;2022-11-20T05:00:21;21.95;;;12.13;;
72478;SDS011;60658;52.246;5.258;2022-11-20T05:01:22;22.25;;;12.43;;
72478;SDS011;60658;52.246;5.258;2022-11-20T05:02:23;22.35;;;12.77;;
72478;SDS011;60658;52.246;5.258;2022-11-20T05:03:24;24.48;;;13.57;;
72478;SDS011;60658;52.246;5.258;2022-11-20T05:04:24;24.80;;;13.30;;
72478;SDS011;60658;52.246;5.258;2022-11-20T05:05:25;23.20;;;13.38;;
72478;SDS011;60658;52.246;5.258;2022-11-20T05:06:26;24.25;;;12.93;;
72478;SDS011;60658;52.246;5.258;2022-11-20T05:07:27;22.05;;;12.55;;
72478;SDS011;60658;52.246;5.258;2022-11-20T05:08:29;24.33;;;13.30;;
72478;SDS011;60658;52.246;5.258;2022-11-20T05:09:29;24.65;;;14.40;;
72478;SDS011;60658;52.246;5.258;2022-11-20T05:10:30;23.45;;;13.60;;
72478;SDS011;60658;52.246;5.258;2022-11-20T05:11:31;24.17;;;14.02;;
72478;SDS011;60658;52.246;5.258;2022-11-20T05:12:31;23.92;;;14.38;;
72478;SDS011;60658;52.246;5.258;2022-11-20T05:13:32;25.83;;;13.88;;
72478;SDS011;60658;52.246;5.258;2022-11-20T05:14:33;25.58;;;13.10;;
72478;SDS011;60658;52.246;5.258;2022-11-20T05:15:33;23.73;;;12.82;;
72478;SDS011;60658;52.246;5.258;2022-11-20T05:16:34;25.98;;;14.07;;
72478;SDS011;60658;52.246;5.258;2022-11-20T05:17:35;28.55;;;15.27;;
72478;SDS011;60658;52.246;5.258;2022-11-20T05:18:36;25.17;;;14.40;;
72478;SDS011;60658;52.246;5.258;2022-11-20T05:19:37;23.98;;;14.43;;
72478;SDS011;60658;52.246;5.258;2022-11-20T05:20:38;23.50;;;14.07;;
72478;SDS011;60658;52.246;5.258;2022-11-20T05:21:38;24.30;;;13.32;;
72478;SDS011;60658;52.246;5.258;2022-11-20T05:22:39;22.75;;;13.32;;
72478;SDS011;60658;52.246;5.258;2022-11-20T05:23:41;24.90;;;14.07;;
72478;SDS011;60658;52.246;5.258;2022-11-20T05:24:42;20.98;;;12.48;;
72478;SDS011;60658;52.246;5.258;2022-11-20T05:25:42;22.63;;;13.13;;
72478;SDS011;60658;52.246;5.258;2022-11-20T05:26:43;24.02;;;13.50;;
72478;SDS011;60658;52.246;5.258;2022-11-20T05:27:43;25.65;;;13.57;;
72478;SDS011;60658;52.246;5.258;2022-11-20T05:28:44;25.25;;;13.80;;
72478;SDS011;60658;52.246;5.258;2022-11-20T05:29:45;21.38;;;13.43;;
72478;SDS011;60658;52.246;5.258;2022-11-20T05:30:45;22.98;;;12.40;;
72478;SDS011;60658;52.246;5.258;2022-11-20T05:31:46;22.13;;;12.88;;
72478;SDS011;60658;52.246;5.258;2022-11-20T05:32:47;22.92;;;13.40;;
72478;SDS011;60658;52.246;5.258;2022-11-20T05:33:47;21.70;;;12.15;;
72478;SDS011;60658;52.246;5.258;2022-11-20T05:34:48;22.00;;;12.32;;
72478;SDS011;60658;52.246;5.258;2022-11-20T05:35:49;23.50;;;13.27;;
72478;SDS011;60658;52.246;5.258;2022-11-20T05:36:49;22.95;;;13.25;;
72478;SDS011;60658;52.246;5.258;2022-11-20T05:37:50;23.13;;;13.30;;
72478;SDS011;60658;52.246;5.258;2022-11-20T05:38:53;22.88;;;11.98;;
72478;SDS011;60658;52.246;5.258;2022-11-20T05:39:56;23.55;;;13.60;;
72478;SDS011;60658;52.246;5.258;2022-11-20T05:41:02;23.42;;;13.52;;
72478;SDS011;60658;52.246;5.258;2022-11-20T05:42:03;26.27;;;13.68;;
72478;SDS011;60658;52.246;5.258;2022-11-20T05:43:04;24.38;;;13.30;;
72478;SDS011;60658;52.246;5.258;2022-11-20T05:44:06;25.10;;;13.50;;
72478;SDS011;60658;52.246;5.258;2022-11-20T05:45:12;22.60;;;13.43;;
72478;SDS011;60658;52.246;5.258;2022-11-20T05:46:19;21.55;;;12.50;;
72478;SDS011;60658;52.246;5.258;2022-11-20T05:47:24;23.00;;;13.38;;
72478;SDS011;60658;52.246;5.258;2022-11-20T05:48:34;22.70;;;12.50;;
72478;SDS011;60658;52.246;5.258;2022-11-20T05:49:40;22.13;;;12.90;;
72478;SDS011;60658;52.246;5.258;2022-11-20T05:50:43;22.25;;;13.23;;
72478;SDS011;60658;52.246;5.258;2022-11-20T05:51:44;20.40;;;12.43;;
72478;SDS011;60658;52.246;5.258;2022-11-20T05:52:46;23.10;;;11.93;;
72478;SDS011;60658;52.246;5.258;2022-11-20T05:53:47;26.10;;;13.65;;
72478;SDS011;60658;52.246;5.258;2022-11-20T05:54:53;23.27;;;11.80;;
72478;SDS011;60658;52.246;5.258;2022-11-20T05:56:16;22.27;;;11.45;;
72478;SDS011;60658;52.246;5.258;2022-11-20T05:57:40;20.17;;;11.65;;
72478;SDS011;60658;52.246;5.258;2022-11-20T05:58:40;23.05;;;12.75;;
72478;SDS011;60658;52.246;5.258;2022-11-20T05:59:42;22.65;;;13.02;;
72478;SDS011;60658;52.246;5.258;2022-11-20T06:00:43;21.30;;;12.13;;
72478;SDS011;60658;52.246;5.258;2022-11-20T06:01:44;20.50;;;12.05;;
72478;SDS011;60658;52.246;5.258;2022-11-20T06:02:46;22.95;;;13.10;;
72478;SDS011;60658;52.246;5.258;2022-11-20T06:03:47;21.77;;;12.68;;
72478;SDS011;60658;52.246;5.258;2022-11-20T06:04:48;23.90;;;13.13;;
72478;SDS011;60658;52.246;5.258;2022-11-20T06:05:48;22.48;;;13.00;;
72478;SDS011;60658;52.246;5.258;2022-11-20T06:06:49;22.52;;;11.48;;
72478;SDS011;60658;52.246;5.258;2022-11-20T06:07:52;25.75;;;12.98;;
72478;SDS011;60658;52.246;5.258;2022-11-20T06:08:52;23.50;;;13.68;;
72478;SDS011;60658;52.246;5.258;2022-11-20T06:09:54;23.90;;;13.23;;
72478;SDS011;60658;52.246;5.258;2022-11-20T06:10:55;25.17;;;13.45;;
72478;SDS011;60658;52.246;5.258;2022-11-20T06:11:56;23.83;;;13.93;;
72478;SDS011;60658;52.246;5.258;2022-11-20T06:12:57;22.85;;;12.93;;
72478;SDS011;60658;52.246;5.258;2022-11-20T06:13:57;26.95;;;13.43;;
72478;SDS011;60658;52.246;5.258;2022-11-20T06:14:58;24.67;;;13.50;;
72478;SDS011;60658;52.246;5.258;2022-11-20T06:15:59;25.20;;;13.45;;
72478;SDS011;60658;52.246;5.258;2022-11-20T06:16:59;29.42;;;14.05;;
72478;SDS011;60658;52.246;5.258;2022-11-20T06:18:00;25.27;;;13.00;;
72478;SDS011;60658;52.246;5.258;2022-11-20T06:19:01;26.38;;;14.13;;
72478;SDS011;60658;52.246;5.258;2022-11-20T06:20:01;27.08;;;13.75;;
72478;SDS011;60658;52.246;5.258;2022-11-20T06:21:03;23.52;;;12.70;;
72478;SDS011;60658;52.246;5.258;2022-11-20T06:22:06;23.38;;;13.00;;
72478;SDS011;60658;52.246;5.258;2022-11-20T06:23:09;24.45;;;13.35;;
72478;SDS011;60658;52.246;5.258;2022-11-20T06:24:10;27.75;;;14.35;;
72478;SDS011;60658;52.246;5.258;2022-11-20T06:25:12;26.17;;;14.35;;
72478;SDS011;60658;52.246;5.258;2022-11-20T06:26:13;24.52;;;13.40;;
72478;SDS011;60658;52.246;5.258;2022-11-20T06:27:15;22.45;;;12.95;;
72478;SDS011;60658;52.246;5.258;2022-11-20T06:28:15;22.75;;;12.90;;
72478;SDS011;60658;52.246;5.258;2022-11-20T06:29:16;23.20;;;13.15;;
72478;SDS011;60658;52.246;5.258;2022-11-20T06:30:17;24.17;;;13.55;;
72478;SDS011;60658;52.246;5.258;2022-11-20T06:31:18;23.00;;;13.68;;
72478;SDS011;60658;52.246;5.258;2022-11-20T06:32:19;27.17;;;14.43;;
72478;SDS011;60658;52.246;5.258;2022-11-20T06:33:20;26.80;;;14.02;;
72478;SDS011;60658;52.246;5.258;2022-11-20T06:34:20;25.00;;;13.35;;
72478;SDS011;60658;52.246;5.258;2022-11-20T06:35:21;22.58;;;12.63;;
72478;SDS011;60658;52.246;5.258;2022-11-20T06:36:24;26.58;;;13.35;;
72478;SDS011;60658;52.246;5.258;2022-11-20T06:37:25;24.33;;;13.43;;
72478;SDS011;60658;52.246;5.258;2022-11-20T06:38:26;23.60;;;13.30;;
72478;SDS011;60658;52.246;5.258;2022-11-20T06:39:27;25.00;;;12.70;;
72478;SDS011;60658;52.246;5.258;2022-11-20T06:40:32;26.60;;;13.85;;
72478;SDS011;60658;52.246;5.258;2022-11-20T06:41:33;26.90;;;13.90;;
72478;SDS011;60658;52.246;5.258;2022-11-20T06:42:33;25.95;;;12.32;;
72478;SDS011;60658;52.246;5.258;2022-11-20T06:43:34;26.75;;;14.50;;
72478;SDS011;60658;52.246;5.258;2022-11-20T06:44:34;25.77;;;12.38;;
72478;SDS011;60658;52.246;5.258;2022-11-20T06:45:35;26.98;;;12.85;;
72478;SDS011;60658;52.246;5.258;2022-11-20T06:46:36;23.48;;;12.90;;
72478;SDS011;60658;52.246;5.258;2022-11-20T06:47:36;22.75;;;13.23;;
72478;SDS011;60658;52.246;5.258;2022-11-20T06:48:37;22.90;;;13.77;;
72478;SDS011;60658;52.246;5.258;2022-11-20T06:49:38;25.45;;;12.55;;
72478;SDS011;60658;52.246;5.258;2022-11-20T06:50:39;23.77;;;12.07;;
72478;SDS011;60658;52.246;5.258;2022-11-20T06:51:39;25.40;;;13.63;;
72478;SDS011;60658;52.246;5.258;2022-11-20T06:52:40;22.95;;;12.35;;
72478;SDS011;60658;52.246;5.258;2022-11-20T06:53:41;26.63;;;13.88;;
72478;SDS011;60658;52.246;5.258;2022-11-20T06:54:42;26.08;;;13.60;;
72478;SDS011;60658;52.246;5.258;2022-11-20T06:55:44;22.65;;;13.48;;
72478;SDS011;60658;52.246;5.258;2022-11-20T06:56:46;26.45;;;13.32;;
72478;SDS011;60658;52.246;5.258;2022-11-20T06:57:51;26.10;;;14.35;;
72478;SDS011;60658;52.246;5.258;2022-11-20T06:58:53;23.80;;;12.77;;
72478;SDS011;60658;52.246;5.258;2022-11-20T06:59:54;26.92;;;13.32;;
72478;SDS011;60658;52.246;5.258;2022-11-20T07:00:57;25.58;;;13.65;;
72478;SDS011;60658;52.246;5.258;2022-11-20T07:01:58;24.30;;;13.30;;
72478;SDS011;60658;52.246;5.258;2022-11-20T07:03:01;25.50;;;13.55;;
72478;SDS011;60658;52.246;5.258;2022-11-20T07:04:02;24.50;;;12.73;;
72478;SDS011;60658;52.246;5.258;2022-11-20T07:05:03;24.38;;;13.07;;
72478;SDS011;60658;52.246;5.258;2022-11-20T07:06:05;25.58;;;12.95;;
72478;SDS011;60658;52.246;5.258;2022-11-20T07:07:06;23.95;;;13.13;;
72478;SDS011;60658;52.246;5.258;2022-11-20T07:08:06;24.40;;;13.40;;
72478;SDS011;60658;52.246;5.258;2022-11-20T07:09:07;25.90;;;13.68;;
72478;SDS011;60658;52.246;5.258;2022-11-20T07:10:09;23.92;;;12.15;;
72478;SDS011;60658;52.246;5.258;2022-11-20T07:11:12;25.20;;;13.02;;
72478;SDS011;60658;52.246;5.258;2022-11-20T07:12:13;21.25;;;12.20;;
72478;SDS011;60658;52.246;5.258;2022-11-20T07:13:13;22.17;;;12.35;;
72478;SDS011;60658;52.246;5.258;2022-11-20T07:14:14;22.20;;;13.20;;
72478;SDS011;60658;52.246;5.258;2022-11-20T07:15:17;24.52;;;12.90;;
72478;SDS011;60658;52.246;5.258;2022-11-20T07:16:18;23.02;;;13.07;;
72478;SDS011;60658;52.246;5.258;2022-11-20T07:17:19;23.13;;;13.25;;
72478;SDS011;60658;52.246;5.258;2022-11-20T07:18:20;22.52;;;12.68;;
72478;SDS011;60658;52.246;5.258;2022-11-20T07:19:20;22.85;;;12.75;;
72478;SDS011;60658;52.246;5.258;2022-11-20T07:20:21;25.98;;;14.43;;
72478;SDS011;60658;52.246;5.258;2022-11-20T07:21:22;22.77;;;12.13;;
72478;SDS011;60658;52.246;5.258;2022-11-20T07:22:22;24.23;;;14.15;;
72478;SDS011;60658;52.246;5.258;2022-11-20T07:23:23;24.00;;;14.48;;
72478;SDS011;60658;52.246;5.258;2022-11-20T07:24:24;27.15;;;15.35;;
72478;SDS011;60658;52.246;5.258;2022-11-20T07:25:24;27.20;;;15.10;;
72478;SDS011;60658;52.246;5.258;2022-11-20T07:26:27;25.30;;;14.90;;
72478;SDS011;60658;52.246;5.258;2022-11-20T07:27:27;25.75;;;14.00;;
72478;SDS011;60658;52.246;5.258;2022-11-20T07:28:28;23.50;;;14.70;;
72478;SDS011;60658;52.246;5.258;2022-11-20T07:29:29;26.35;;;14.63;;
72478;SDS011;60658;52.246;5.258;2022-11-20T07:30:29;22.30;;;14.45;;
72478;SDS011;60658;52.246;5.258;2022-11-20T07:31:30;25.98;;;14.88;;
72478;SDS011;60658;52.246;5.258;2022-11-20T07:32:31;27.38;;;15.35;;
72478;SDS011;60658;52.246;5.258;2022-11-20T07:33:32;26.65;;;15.68;;
72478;SDS011;60658;52.246;5.258;2022-11-20T07:34:32;28.33;;;15.30;;
72478;SDS011;60658;52.246;5.258;2022-11-20T07:35:33;25.08;;;14.73;;
72478;SDS011;60658;52.246;5.258;2022-11-20T07:36:34;22.75;;;14.38;;
72478;SDS011;60658;52.246;5.258;2022-11-20T07:37:35;24.02;;;13.82;;
72478;SDS011;60658;52.246;5.258;2022-11-20T07:38:36;27.77;;;14.93;;
72478;SDS011;60658;52.246;5.258;2022-11-20T07:39:37;26.30;;;15.05;;
72478;SDS011;60658;52.246;5.258;2022-11-20T07:40:38;23.92;;;12.45;;
72478;SDS011;60658;52.246;5.258;2022-11-20T07:41:40;22.83;;;13.38;;
72478;SDS011;60658;52.246;5.258;2022-11-20T07:42:46;26.67;;;14.93;;
72478;SDS011;60658;52.246;5.258;2022-11-20T07:43:47;23.48;;;13.38;;
72478;SDS011;60658;52.246;5.258;2022-11-20T07:44:48;27.88;;;13.63;;
72478;SDS011;60658;52.246;5.258;2022-11-20T07:45:48;25.35;;;14.55;;
72478;SDS011;60658;52.246;5.258;2022-11-20T07:46:49;27.83;;;14.88;;
72478;SDS011;60658;52.246;5.258;2022-11-20T07:47:50;25.45;;;14.50;;
72478;SDS011;60658;52.246;5.258;2022-11-20T07:48:50;21.10;;;12.88;;
72478;SDS011;60658;52.246;5.258;2022-11-20T07:49:52;24.25;;;13.63;;
72478;SDS011;60658;52.246;5.258;2022-11-20T07:50:54;23.73;;;13.70;;
72478;SDS011;60658;52.246;5.258;2022-11-20T07:51:54;25.80;;;13.98;;
72478;SDS011;60658;52.246;5.258;2022-11-20T07:53:00;25.08;;;13.23;;
72478;SDS011;60658;52.246;5.258;2022-11-20T07:54:04;25.05;;;13.15;;
72478;SDS011;60658;52.246;5.258;2022-11-20T07:55:10;23.73;;;13.35;;
72478;SDS011;60658;52.246;5.258;2022-11-20T07:56:16;25.90;;;13.68;;
72478;SDS011;60658;52.246;5.258;2022-11-20T07:57:21;24.23;;;13.93;;
72478;SDS011;60658;52.246;5.258;2022-11-20T07:58:22;24.45;;;13.55;;
72478;SDS011;60658;52.246;5.258;2022-11-20T07:59:23;28.70;;;14.98;;
72478;SDS011;60658;52.246;5.258;2022-11-20T08:00:23;23.55;;;13.32;;
72478;SDS011;60658;52.246;5.258;2022-11-20T08:01:24;27.08;;;13.57;;
72478;SDS011;60658;52.246;5.258;2022-11-20T08:02:25;24.13;;;13.35;;
72478;SDS011;60658;52.246;5.258;2022-11-20T08:03:25;21.75;;;13.45;;
72478;SDS011;60658;52.246;5.258;2022-11-20T08:04:26;25.65;;;13.98;;
72478;SDS011;60658;52.246;5.258;2022-11-20T08:05:27;27.85;;;13.55;;
72478;SDS011;60658;52.246;5.258;2022-11-20T08:06:27;24.30;;;12.20;;
72478;SDS011;60658;52.246;5.258;2022-11-20T08:07:28;26.92;;;14.57;;
72478;SDS011;60658;52.246;5.258;2022-11-20T08:08:28;24.55;;;14.05;;
72478;SDS011;60658;52.246;5.258;2022-11-20T08:09:29;24.70;;;14.57;;
72478;SDS011;60658;52.246;5.258;2022-11-20T08:10:30;25.40;;;14.63;;
72478;SDS011;60658;52.246;5.258;2022-11-20T08:11:31;24.02;;;13.90;;
72478;SDS011;60658;52.246;5.258;2022-11-20T08:12:34;24.25;;;13.45;;
72478;SDS011;60658;52.246;5.258;2022-11-20T08:13:35;24.67;;;13.63;;
72478;SDS011;60658;52.246;5.258;2022-11-20T08:14:36;28.30;;;16.00;;
72478;SDS011;60658;52.246;5.258;2022-11-20T08:15:37;26.50;;;14.85;;
72478;SDS011;60658;52.246;5.258;2022-11-20T08:16:38;29.38;;;15.10;;
72478;SDS011;60658;52.246;5.258;2022-11-20T08:17:38;24.55;;;14.10;;
72478;SDS011;60658;52.246;5.258;2022-11-20T08:18:39;25.70;;;15.90;;
72478;SDS011;60658;52.246;5.258;2022-11-20T08:19:40;25.30;;;14.65;;